Huvudsida
METAR-TAF:

METAR-TAF

Flygplatser :

Åre Östersund Airport

Östersund-Frösön, Sverige

latitud: 63-11N, longitud: 014-30E, höjd: 376 m

Aktuellt väderrapport

Denna rapport gjordes för 41 minuter sedan, klockan 06:50 UTC
Vind 7 kt från syd
Temperatur 3°C
Fuktighet 81%
Tryck 974 hPa
Sikt 10 km eller mer
Få moln på en höjd av 3400 ft
Spridda moln på en höjd av 6600 ft

METAR: ESNZ 220650Z 17007KT 9999 FEW034 SCT066 03/M00 Q0974

Tid: 08:31 (07:31 UTC)

Väderprognos

Denna rapport gjordes för 2 timmar och 1 minuter sedan, klockan 05:30 UTC
Prognos gäller från 22 kl. 06 UTC till 22 kl. 12 UTC
Vind 6 kt från sydväst
Sikt 10 km eller mer
Brutna moln på en höjd av 3500 ft

TAF: ESNZ 220530Z 2206/2212 22006KT 9999 BKN035

Aktuella väderrapporter och prognoser från 4000 flygplatser (METAR- och TAF-rapporter).

De tillgängliga stationerna syns som gula och röda prickar på kartan.

För musen över prickarna för att se namnen på stationerna.

Klicka sedan för att få väderrapporter och prognoser.

För att ändra kartan: Klicka på de gröna knapparna med ett svart kors på för att zooma in; den gröna knappen med ett streck på för att zooma ut; eller på de gröna pilarna för angränsande kartor.


METAR-TAF: